createdAt,value
2019-06-07T00:02:18.853Z,13.60
2019-06-07T00:04:46.973Z,13.70
2019-06-07T00:07:17.761Z,13.40
2019-06-07T00:09:46.600Z,13.20
2019-06-07T00:12:17.579Z,13.20
2019-06-07T00:14:45.553Z,13.60
2019-06-07T00:17:15.354Z,13.40
2019-06-07T00:19:44.383Z,13.60
2019-06-07T00:22:18.501Z,13.90
2019-06-07T00:24:42.055Z,13.80
2019-06-07T00:27:12.953Z,13.30
2019-06-07T00:29:40.879Z,12.80
2019-06-07T00:32:09.290Z,12.80
2019-06-07T00:34:37.303Z,13.00
2019-06-07T00:37:05.166Z,13.30
2019-06-07T00:39:33.042Z,12.70
2019-06-07T00:42:00.982Z,12.80
2019-06-07T00:44:29.016Z,12.90
2019-06-07T00:46:56.855Z,12.90
2019-06-07T00:49:40.107Z,12.80
2019-06-07T00:51:54.557Z,13.00
2019-06-07T00:54:24.677Z,13.20
2019-06-07T00:56:52.292Z,12.80
2019-06-07T00:59:24.332Z,13.00
2019-06-07T01:01:49.937Z,13.10
2019-06-07T01:04:20.777Z,13.10
2019-06-07T01:06:47.730Z,13.50
2019-06-07T01:09:15.619Z,13.10
2019-06-07T01:11:43.488Z,13.20
2019-06-07T01:14:11.373Z,13.20
2019-06-07T01:16:56.466Z,13.40
2019-06-07T01:19:08.997Z,13.20
2019-06-07T01:21:37.034Z,13.00
2019-06-07T01:24:11.877Z,13.40
2019-06-07T01:26:34.755Z,13.10
2019-06-07T01:29:02.659Z,12.90
2019-06-07T01:31:31.480Z,13.00
2019-06-07T01:34:00.939Z,13.00
2019-06-07T01:36:30.823Z,13.20
2019-06-07T01:38:58.635Z,13.10
2019-06-07T01:41:30.118Z,13.20
2019-06-07T01:43:56.326Z,13.20
2019-06-07T01:46:26.735Z,13.00
2019-06-07T01:48:54.001Z,13.20
2019-06-07T01:51:22.091Z,13.00
2019-06-07T01:53:50.015Z,13.00
2019-06-07T01:56:18.895Z,13.10
2019-06-07T01:58:47.615Z,13.00
2019-06-07T02:01:15.480Z,12.80
2019-06-07T02:03:43.310Z,13.00
2019-06-07T02:06:11.275Z,12.80
2019-06-07T02:08:39.210Z,12.70
2019-06-07T02:11:07.115Z,13.10
2019-06-07T02:13:34.972Z,12.60
2019-06-07T02:16:14.493Z,12.90
2019-06-07T02:19:00.784Z,12.80
2019-06-07T02:21:12.337Z,12.90
2019-06-07T02:23:40.248Z,12.70
2019-06-07T02:26:08.098Z,13.00
2019-06-07T02:28:45.119Z,12.70
2019-06-07T02:31:05.838Z,12.70
2019-06-07T02:33:39.759Z,12.90
2019-06-07T02:36:03.395Z,13.00
2019-06-07T02:38:37.077Z,12.70
2019-06-07T02:41:01.007Z,12.70
2019-06-07T02:43:33.199Z,12.50
2019-06-07T02:46:21.322Z,12.70
2019-06-07T02:48:35.300Z,13.10
2019-06-07T02:50:58.146Z,12.60
2019-06-07T02:53:27.696Z,12.80
2019-06-07T02:56:35.259Z,12.40
2019-06-07T02:58:29.944Z,12.40
2019-06-07T03:01:06.997Z,12.10
2019-06-07T03:03:28.350Z,12.50
2019-06-07T03:05:55.959Z,11.90
2019-06-07T03:08:25.825Z,11.80
2019-06-07T03:10:54.156Z,11.90
2019-06-07T03:13:22.547Z,12.00
2019-06-07T03:15:52.560Z,11.90
2019-06-07T03:18:41.695Z,11.90
2019-06-07T03:21:17.291Z,12.00
2019-06-07T03:23:45.767Z,11.90
2019-06-07T03:26:15.229Z,11.60
2019-06-07T03:28:43.343Z,11.90
2019-06-07T03:31:11.220Z,12.80
2019-06-07T03:33:42.667Z,12.10
2019-06-07T03:36:23.246Z,11.80
2019-06-07T03:38:52.015Z,11.80
2019-06-07T03:41:19.934Z,12.20
2019-06-07T03:43:47.862Z,11.90
2019-06-07T03:46:15.712Z,12.50
2019-06-07T03:48:43.604Z,12.10
2019-06-07T03:51:24.006Z,12.40
2019-06-07T03:53:41.265Z,12.70
2019-06-07T03:56:09.590Z,12.70
2019-06-07T03:58:48.596Z,12.80
2019-06-07T04:01:07.283Z,12.30
2019-06-07T04:03:45.399Z,12.50
2019-06-07T04:06:04.954Z,12.60
2019-06-07T04:08:34.465Z,12.70
2019-06-07T04:11:02.593Z,12.90
2019-06-07T04:13:34.814Z,13.00
2019-06-07T04:16:00.380Z,12.50
2019-06-07T04:18:28.230Z,11.90
2019-06-07T04:20:56.105Z,12.20
2019-06-07T04:23:28.272Z,12.00
2019-06-07T04:25:56.465Z,12.00
2019-06-07T04:29:16.528Z,12.40
2019-06-07T04:30:54.081Z,12.40
2019-06-07T04:33:21.968Z,12.30
2019-06-07T04:35:50.071Z,12.10
2019-06-07T04:38:17.918Z,12.50
2019-06-07T04:40:47.098Z,13.00
2019-06-07T04:43:15.009Z,12.80
2019-06-07T04:45:50.733Z,12.70
2019-06-07T04:48:13.777Z,12.40
2019-06-07T04:50:44.127Z,12.80
2019-06-07T04:53:11.396Z,12.70
2019-06-07T04:55:41.374Z,12.20
2019-06-07T04:58:09.157Z,12.30
2019-06-07T05:00:59.270Z,12.60
2019-06-07T05:03:06.925Z,12.70
2019-06-07T05:05:37.451Z,12.10
2019-06-07T05:08:07.372Z,12.30
2019-06-07T05:10:37.830Z,13.10
2019-06-07T05:13:04.391Z,12.60
2019-06-07T05:15:32.308Z,12.30
2019-06-07T05:18:00.250Z,12.60
2019-06-07T05:20:28.205Z,13.40
2019-06-07T05:22:56.123Z,12.90
2019-06-07T05:25:25.078Z,12.60
2019-06-07T05:27:52.995Z,12.40
2019-06-07T05:33:04.021Z,13.20
2019-06-07T05:35:33.086Z,13.20
2019-06-07T05:38:01.322Z,13.50
2019-06-07T05:40:38.735Z,13.30
2019-06-07T05:43:05.703Z,12.50
2019-06-07T05:45:38.467Z,13.00
2019-06-07T05:48:06.822Z,13.00
2019-06-07T05:50:44.947Z,12.60
2019-06-07T05:53:05.320Z,12.80
2019-06-07T05:55:35.293Z,13.70
2019-06-07T05:58:03.412Z,13.30
2019-06-07T06:00:31.288Z,13.10
2019-06-07T06:03:05.396Z,12.90
2019-06-07T06:05:34.387Z,13.30
2019-06-07T06:07:58.772Z,13.90
2019-06-07T06:10:26.612Z,14.30
2019-06-07T06:12:54.494Z,13.50
2019-06-07T06:15:41.688Z,13.00
2019-06-07T06:17:53.860Z,12.80
2019-06-07T06:20:23.067Z,13.30
2019-06-07T06:22:51.282Z,13.20
2019-06-07T06:25:35.068Z,13.80
2019-06-07T06:28:10.008Z,13.70
2019-06-07T06:30:22.540Z,13.50
2019-06-07T06:32:57.863Z,14.50
2019-06-07T06:35:22.189Z,13.90
2019-06-07T06:37:53.195Z,14.10
2019-06-07T06:40:20.909Z,14.20
2019-06-07T06:42:50.535Z,14.70
2019-06-07T06:45:18.962Z,15.70
2019-06-07T06:47:49.048Z,15.10
2019-06-07T06:50:16.899Z,15.30
2019-06-07T06:52:47.983Z,15.80
2019-06-07T06:55:14.622Z,15.60
2019-06-07T06:57:43.486Z,15.30
2019-06-07T07:00:12.192Z,16.50
2019-06-07T07:03:26.998Z,14.90
2019-06-07T07:05:11.335Z,15.80
2019-06-07T07:07:40.292Z,16.00
2019-06-07T07:10:10.806Z,15.90
2019-06-07T07:12:38.669Z,16.40
2019-06-07T07:15:07.548Z,16.10
2019-06-07T07:17:50.752Z,16.20
2019-06-07T07:20:05.780Z,16.10
2019-06-07T07:22:33.700Z,15.50
2019-06-07T07:25:01.562Z,15.70
2019-06-07T07:27:29.534Z,16.00
2019-06-07T07:30:34.695Z,16.00
2019-06-07T07:32:27.180Z,17.70
2019-06-07T07:35:00.328Z,17.00
2019-06-07T07:37:25.827Z,16.40
2019-06-07T07:40:01.205Z,16.40
2019-06-07T07:42:24.621Z,16.60
2019-06-07T07:44:54.911Z,16.20
2019-06-07T07:47:22.320Z,16.30
2019-06-07T07:49:53.007Z,16.80
2019-06-07T07:52:20.046Z,16.00
2019-06-07T07:54:57.798Z,16.30
2019-06-07T07:57:23.401Z,17.10
2019-06-07T08:00:06.155Z,16.90
2019-06-07T08:02:21.096Z,17.20
2019-06-07T08:07:18.756Z,17.60
2019-06-07T08:09:47.485Z,17.60
2019-06-07T08:12:16.386Z,18.10
2019-06-07T08:14:44.268Z,17.30
2019-06-07T08:17:13.562Z,18.20
2019-06-07T08:19:42.668Z,20.50
2019-06-07T08:22:10.540Z,19.10
2019-06-07T08:24:38.417Z,20.10
2019-06-07T08:27:25.205Z,19.40
2019-06-07T08:29:45.003Z,20.40
2019-06-07T08:32:05.865Z,20.60
2019-06-07T08:34:33.700Z,21.80
2019-06-07T08:37:02.198Z,21.00
2019-06-07T08:39:30.167Z,19.30
2019-06-07T08:42:11.915Z,19.40
2019-06-07T08:44:28.056Z,19.90
2019-06-07T08:47:12.579Z,20.40
2019-06-07T08:49:25.741Z,20.70
2019-06-07T08:51:57.731Z,20.50
2019-06-07T08:54:23.646Z,19.70
2019-06-07T08:56:53.669Z,19.80
2019-06-07T08:59:21.575Z,19.30
2019-06-07T09:01:49.429Z,19.30
2019-06-07T09:04:17.357Z,20.40
2019-06-07T09:09:15.056Z,19.90
2019-06-07T09:11:42.887Z,20.10
2019-06-07T09:14:10.737Z,19.60
2019-06-07T09:16:38.646Z,21.30
2019-06-07T09:19:10.675Z,20.20
2019-06-07T09:21:36.297Z,19.40
2019-06-07T09:24:11.363Z,20.90
2019-06-07T09:26:34.059Z,21.40
2019-06-07T09:29:07.071Z,21.00
2019-06-07T09:31:51.210Z,20.70
2019-06-07T09:34:08.312Z,21.60
2019-06-07T09:36:31.833Z,19.90
2019-06-07T09:39:06.437Z,21.80
2019-06-07T09:41:47.797Z,21.30
2019-06-07T09:44:21.568Z,20.90
2019-06-07T09:46:34.628Z,21.10
2019-06-07T09:49:18.921Z,20.90
2019-06-07T09:51:32.353Z,20.40
2019-06-07T09:54:01.302Z,20.80
2019-06-07T09:56:30.116Z,21.00
2019-06-07T09:59:00.376Z,21.80
2019-06-07T10:01:27.959Z,21.00
2019-06-07T10:04:02.322Z,21.80
2019-06-07T10:06:25.787Z,21.60
2019-06-07T10:10:08.259Z,20.80
2019-06-07T10:11:24.630Z,21.60
2019-06-07T10:13:52.532Z,21.30
2019-06-07T10:16:20.510Z,21.40
2019-06-07T10:18:48.432Z,21.50
2019-06-07T10:21:16.878Z,22.20
2019-06-07T10:23:44.831Z,22.10
2019-06-07T10:26:12.759Z,22.60
2019-06-07T10:28:40.678Z,21.50
2019-06-07T10:31:10.932Z,21.50
2019-06-07T10:33:38.395Z,22.50
2019-06-07T10:36:08.379Z,23.20
2019-06-07T10:38:36.458Z,22.70
2019-06-07T10:41:04.715Z,21.90
2019-06-07T10:43:32.735Z,22.20
2019-06-07T10:46:01.477Z,22.60
2019-06-07T10:48:29.324Z,23.60
2019-06-07T10:50:57.235Z,22.70
2019-06-07T10:53:25.289Z,23.10
2019-06-07T10:55:53.171Z,23.60
2019-06-07T10:58:21.221Z,22.20
2019-06-07T11:00:49.449Z,22.30
2019-06-07T11:03:17.379Z,24.00
2019-06-07T11:05:45.306Z,23.20
2019-06-07T11:08:14.905Z,23.40
2019-06-07T11:10:42.930Z,22.90
2019-06-07T11:13:10.800Z,24.30
2019-06-07T11:15:38.695Z,24.70
2019-06-07T11:18:08.299Z,24.80
2019-06-07T11:20:36.409Z,24.60
2019-06-07T11:23:04.330Z,23.90
2019-06-07T11:25:32.210Z,23.50
2019-06-07T11:28:00.278Z,23.90
2019-06-07T11:30:28.313Z,25.30
2019-06-07T11:32:56.200Z,24.30
2019-06-07T11:35:24.092Z,25.10
2019-06-07T11:37:52.027Z,24.00
2019-06-07T11:40:34.809Z,25.70
2019-06-07T11:42:52.782Z,26.90
2019-06-07T11:45:20.045Z,25.80
2019-06-07T11:47:48.013Z,25.10
2019-06-07T11:50:17.579Z,26.00
2019-06-07T11:52:46.553Z,25.50
2019-06-07T11:55:15.844Z,24.80
2019-06-07T11:57:43.994Z,24.50
2019-06-07T12:00:16.309Z,25.30
2019-06-07T12:02:45.082Z,25.70
2019-06-07T12:05:17.175Z,25.20
2019-06-07T12:07:43.765Z,25.10
2019-06-07T12:10:12.553Z,25.20
2019-06-07T12:12:40.866Z,24.60
2019-06-07T12:15:09.105Z,25.20
2019-06-07T12:17:37.169Z,25.00
2019-06-07T12:20:08.541Z,25.20
2019-06-07T12:22:35.229Z,26.00
2019-06-07T12:25:05.918Z,26.60
2019-06-07T12:27:33.645Z,26.90
2019-06-07T12:30:09.734Z,28.20
2019-06-07T12:32:31.754Z,28.50
2019-06-07T12:34:59.658Z,28.50
2019-06-07T12:37:42.685Z,28.70
2019-06-07T12:39:57.473Z,27.90
2019-06-07T12:42:25.460Z,26.80
2019-06-07T12:44:53.432Z,26.10
2019-06-07T12:47:21.412Z,26.80
2019-06-07T12:49:50.811Z,28.30
2019-06-07T12:52:20.112Z,27.40
2019-06-07T12:54:48.697Z,27.00
2019-06-07T12:57:17.938Z,28.20
2019-06-07T12:59:46.055Z,28.50
2019-06-07T13:02:14.245Z,28.00
2019-06-07T13:04:42.393Z,29.80
2019-06-07T13:07:10.395Z,29.30
2019-06-07T13:09:38.305Z,28.70
2019-06-07T13:12:06.247Z,29.30
2019-06-07T13:14:34.164Z,31.20
2019-06-07T13:17:02.106Z,29.00
2019-06-07T13:19:30.050Z,30.90
2019-06-07T13:21:58.019Z,30.20
2019-06-07T13:24:25.894Z,29.90
2019-06-07T13:26:53.848Z,32.00
2019-06-07T13:29:22.664Z,33.80
2019-06-07T13:31:50.703Z,32.80
2019-06-07T13:34:20.419Z,31.70
2019-06-07T13:36:48.527Z,32.80
2019-06-07T13:39:17.113Z,30.80
2019-06-07T13:41:45.165Z,32.90
2019-06-07T13:44:13.161Z,32.70
2019-06-07T13:46:42.041Z,31.40
2019-06-07T13:49:09.954Z,32.40
2019-06-07T13:51:37.856Z,30.90
2019-06-07T13:54:05.866Z,30.80
2019-06-07T13:56:35.122Z,31.20
2019-06-07T13:59:03.080Z,30.50
2019-06-07T14:01:31.088Z,33.40
2019-06-07T14:03:58.968Z,31.30
2019-06-07T14:06:28.179Z,32.80
2019-06-07T14:08:57.637Z,33.00
2019-06-07T14:11:25.679Z,31.20
2019-06-07T14:13:53.528Z,31.50
2019-06-07T14:16:22.103Z,30.90
2019-06-07T14:18:50.043Z,32.10
2019-06-07T14:21:17.981Z,34.20
2019-06-07T14:23:49.051Z,29.60
2019-06-07T14:26:15.838Z,32.00
2019-06-07T14:28:43.805Z,31.60
2019-06-07T14:31:11.691Z,32.80
2019-06-07T14:33:39.675Z,34.30
2019-06-07T14:36:10.034Z,30.40
2019-06-07T14:38:48.026Z,30.70
2019-06-07T14:41:15.939Z,29.20
2019-06-07T14:43:43.940Z,30.70
2019-06-07T14:46:11.881Z,32.10
2019-06-07T14:48:39.792Z,30.30
2019-06-07T14:51:07.757Z,29.70
2019-06-07T14:53:35.728Z,31.60
2019-06-07T14:56:03.856Z,31.50
2019-06-07T14:58:31.822Z,31.60
2019-06-07T15:00:59.698Z,33.60
2019-06-07T15:03:28.403Z,33.60
2019-06-07T15:05:56.404Z,35.40
2019-06-07T15:08:24.361Z,35.50
2019-06-07T15:10:52.333Z,34.80
2019-06-07T15:13:20.304Z,34.90
2019-06-07T15:15:48.191Z,31.20
2019-06-07T15:18:16.080Z,29.40
2019-06-07T15:20:44.029Z,29.60
2019-06-07T15:23:11.939Z,29.50
2019-06-07T15:25:39.856Z,29.60
2019-06-07T15:28:07.866Z,30.00
2019-06-07T15:30:35.818Z,30.70
2019-06-07T15:33:03.804Z,30.40
2019-06-07T15:35:32.288Z,30.10
2019-06-07T15:38:00.236Z,30.60
2019-06-07T15:40:29.035Z,30.70
2019-06-07T15:42:57.012Z,30.60
2019-06-07T15:45:25.044Z,30.10
2019-06-07T15:47:52.938Z,30.20
2019-06-07T15:50:20.967Z,29.80
2019-06-07T15:52:48.946Z,30.10
2019-06-07T15:55:17.919Z,29.90
2019-06-07T15:57:45.878Z,29.80
2019-06-07T16:00:14.092Z,30.00
2019-06-07T16:02:42.183Z,30.10
2019-06-07T16:05:10.600Z,30.10
2019-06-07T16:07:38.610Z,29.80
2019-06-07T16:10:08.138Z,30.60
2019-06-07T16:12:36.730Z,31.40
2019-06-07T16:15:06.458Z,31.50
2019-06-07T16:17:35.441Z,31.90
2019-06-07T16:20:05.207Z,31.60
2019-06-07T16:22:33.562Z,30.80
2019-06-07T16:25:01.615Z,30.70
2019-06-07T16:27:29.450Z,30.90
2019-06-07T16:29:57.387Z,30.20
2019-06-07T16:32:25.374Z,30.10
2019-06-07T16:34:53.239Z,32.50
2019-06-07T16:37:21.168Z,32.80
2019-06-07T16:39:49.086Z,31.90
2019-06-07T16:42:17.124Z,32.50
2019-06-07T16:44:45.095Z,33.10
2019-06-07T16:47:13.074Z,32.70
2019-06-07T16:49:43.029Z,35.50
2019-06-07T16:52:11.630Z,37.70
2019-06-07T16:54:39.685Z,37.00
2019-06-07T16:57:07.634Z,35.20
2019-06-07T16:59:36.721Z,34.60
2019-06-07T17:02:04.714Z,32.70
2019-06-07T17:04:32.669Z,31.50
2019-06-07T17:07:03.799Z,28.50
2019-06-07T17:09:31.816Z,26.00
2019-06-07T17:12:00.162Z,24.40
2019-06-07T17:14:28.211Z,23.50
2019-06-07T17:16:58.968Z,23.10
2019-06-07T17:19:27.115Z,22.80
2019-06-07T17:21:55.108Z,23.00
2019-06-07T17:24:26.600Z,22.80
2019-06-07T17:26:52.997Z,22.60
2019-06-07T17:29:21.043Z,23.10
2019-06-07T17:31:50.270Z,23.20
2019-06-07T17:34:22.119Z,23.20
2019-06-07T17:36:50.710Z,22.90
2019-06-07T17:39:18.828Z,22.50
2019-06-07T17:41:56.192Z,22.00
2019-06-07T17:44:16.561Z,21.40
2019-06-07T17:46:45.565Z,21.60
2019-06-07T17:49:13.749Z,21.00
2019-06-07T17:51:44.119Z,20.50
2019-06-07T17:54:12.307Z,20.60
2019-06-07T17:56:40.217Z,20.50
2019-06-07T17:59:08.146Z,20.00
2019-06-07T18:01:41.378Z,20.00
2019-06-07T18:04:08.633Z,19.90
2019-06-07T18:06:39.131Z,20.00
2019-06-07T18:09:08.631Z,20.20
2019-06-07T18:11:36.621Z,20.80
2019-06-07T18:14:10.650Z,20.30
2019-06-07T18:16:35.742Z,19.90
2019-06-07T18:19:03.794Z,19.70
2019-06-07T18:21:31.847Z,19.40
2019-06-07T18:23:59.982Z,19.00
2019-06-07T18:26:28.095Z,18.90
2019-06-07T18:28:56.196Z,18.40
2019-06-07T18:31:24.123Z,18.00
2019-06-07T18:33:52.994Z,17.40
2019-06-07T18:36:21.096Z,17.70
2019-06-07T18:38:49.266Z,17.70
2019-06-07T18:41:17.283Z,17.80
2019-06-07T18:43:47.032Z,17.70
2019-06-07T18:46:15.250Z,17.80
2019-06-07T18:48:43.220Z,17.70
2019-06-07T18:51:11.206Z,17.80
2019-06-07T18:53:39.326Z,17.90
2019-06-07T18:56:07.306Z,17.60
2019-06-07T18:58:35.204Z,17.40
2019-06-07T19:01:03.147Z,16.90
2019-06-07T19:03:37.308Z,16.50
2019-06-07T19:06:06.368Z,16.40
2019-06-07T19:08:34.319Z,16.40
2019-06-07T19:11:02.361Z,16.40
2019-06-07T19:13:30.234Z,16.60
2019-06-07T19:15:58.184Z,16.80
2019-06-07T19:18:26.082Z,16.90
2019-06-07T19:20:54.349Z,17.10
2019-06-07T19:23:22.421Z,17.00
2019-06-07T19:25:50.327Z,17.00
2019-06-07T19:28:18.349Z,17.50
2019-06-07T19:30:46.346Z,17.50
2019-06-07T19:33:14.295Z,17.60
2019-06-07T19:35:42.304Z,17.50
2019-06-07T19:38:10.227Z,17.50
2019-06-07T19:40:38.196Z,17.40
2019-06-07T19:43:06.175Z,17.40
2019-06-07T19:45:34.110Z,17.40
2019-06-07T19:48:02.846Z,17.70
2019-06-07T19:50:30.861Z,17.60
2019-06-07T19:52:59.174Z,17.70
2019-06-07T19:55:27.205Z,17.80
2019-06-07T19:57:55.561Z,17.70
2019-06-07T20:00:23.611Z,17.70
2019-06-07T20:02:51.551Z,17.90
2019-06-07T20:05:19.494Z,18.00
2019-06-07T20:07:47.506Z,17.80
2019-06-07T20:10:17.786Z,17.80
2019-06-07T20:12:45.782Z,17.50
2019-06-07T20:15:28.003Z,17.50
2019-06-07T20:17:43.809Z,17.50
2019-06-07T20:20:12.808Z,17.60
2019-06-07T20:22:40.706Z,17.70
2019-06-07T20:25:09.510Z,17.60
2019-06-07T20:27:37.699Z,17.70
2019-06-07T20:30:05.895Z,17.60
2019-06-07T20:32:33.817Z,17.70
2019-06-07T20:35:01.957Z,17.60
2019-06-07T20:37:29.833Z,17.60
2019-06-07T20:40:02.196Z,17.60
2019-06-07T20:42:27.712Z,17.60
2019-06-07T20:44:55.598Z,17.80
2019-06-07T20:47:23.576Z,17.70
2019-06-07T20:49:51.921Z,17.70
2019-06-07T20:52:19.891Z,17.50
2019-06-07T20:54:47.836Z,17.50
2019-06-07T20:57:20.599Z,17.90
2019-06-07T20:59:49.226Z,17.80
2019-06-07T21:02:17.206Z,17.60
2019-06-07T21:04:45.142Z,17.30
2019-06-07T21:07:13.049Z,16.60
2019-06-07T21:09:42.049Z,17.00
2019-06-07T21:12:11.866Z,17.00
2019-06-07T21:14:39.862Z,17.00
2019-06-07T21:17:08.269Z,17.10
2019-06-07T21:19:36.281Z,16.90
2019-06-07T21:22:04.625Z,17.00
2019-06-07T21:24:32.600Z,17.30
2019-06-07T21:27:01.633Z,16.80
2019-06-07T21:29:30.056Z,17.20
2019-06-07T21:31:57.946Z,17.10
2019-06-07T21:34:25.836Z,17.00
2019-06-07T21:36:53.879Z,17.10
2019-06-07T21:39:21.912Z,17.00
2019-06-07T21:41:49.911Z,17.00
2019-06-07T21:44:17.794Z,17.00
2019-06-07T21:46:45.687Z,17.10
2019-06-07T21:49:13.657Z,17.20
2019-06-07T21:51:41.530Z,17.10
2019-06-07T21:54:12.810Z,17.10
2019-06-07T21:56:39.318Z,17.30
2019-06-07T21:59:07.226Z,17.30
2019-06-07T22:01:35.331Z,17.50
2019-06-07T22:04:03.587Z,17.30
2019-06-07T22:06:32.461Z,17.40
2019-06-07T22:09:00.341Z,17.40
2019-06-07T22:11:28.208Z,17.30
2019-06-07T22:13:56.164Z,17.20
2019-06-07T22:16:29.191Z,17.10
2019-06-07T22:18:53.923Z,17.30
2019-06-07T22:21:21.962Z,17.40
2019-06-07T22:23:49.851Z,17.00
2019-06-07T22:26:17.794Z,17.10
2019-06-07T22:28:45.657Z,17.00
2019-06-07T22:31:14.840Z,17.00
2019-06-07T22:33:42.967Z,17.00
2019-06-07T22:36:11.077Z,17.10
2019-06-07T22:38:40.268Z,17.10
2019-06-07T22:41:09.336Z,17.20
2019-06-07T22:43:37.363Z,17.10
2019-06-07T22:46:06.736Z,17.00
2019-06-07T22:48:34.847Z,16.70
2019-06-07T22:51:07.711Z,16.80
2019-06-07T22:53:40.789Z,16.70
2019-06-07T22:56:18.135Z,16.80
2019-06-07T22:58:46.110Z,16.90
2019-06-07T23:01:14.556Z,16.80
2019-06-07T23:03:42.467Z,16.70
2019-06-07T23:06:10.483Z,16.80
2019-06-07T23:08:38.392Z,16.70
2019-06-07T23:11:06.292Z,16.70
2019-06-07T23:13:34.174Z,16.80
2019-06-07T23:16:02.134Z,17.00
2019-06-07T23:18:29.999Z,16.80
2019-06-07T23:20:57.954Z,16.90
2019-06-07T23:23:25.985Z,16.80
2019-06-07T23:25:53.917Z,16.90
2019-06-07T23:28:21.840Z,17.00
2019-06-07T23:30:49.734Z,16.90
2019-06-07T23:33:18.836Z,17.00
2019-06-07T23:35:46.686Z,17.10
2019-06-07T23:38:14.952Z,16.80
2019-06-07T23:40:42.801Z,16.70
2019-06-07T23:43:11.663Z,16.90
2019-06-07T23:45:39.536Z,16.90
2019-06-07T23:48:08.530Z,16.80
2019-06-07T23:50:36.359Z,16.90
2019-06-07T23:53:04.204Z,16.80
2019-06-07T23:55:32.084Z,16.80
2019-06-07T23:57:59.886Z,16.60
